createdAt,value
2018-12-18T00:00:27.931Z,8.40
2018-12-18T00:01:27.904Z,7.60
2018-12-18T00:02:28.161Z,7.00
2018-12-18T00:03:27.796Z,7.60
2018-12-18T00:04:27.743Z,8.00
2018-12-18T00:05:27.734Z,6.80
2018-12-18T00:06:27.677Z,7.90
2018-12-18T00:07:27.623Z,7.70
2018-12-18T00:08:27.590Z,8.30
2018-12-18T00:09:27.526Z,7.50
2018-12-18T00:10:27.509Z,7.00
2018-12-18T00:11:27.435Z,9.00
2018-12-18T00:12:27.412Z,8.60
2018-12-18T00:13:27.352Z,7.00
2018-12-18T00:14:27.307Z,7.80
2018-12-18T00:15:27.265Z,7.60
2018-12-18T00:16:27.248Z,7.10
2018-12-18T00:17:27.191Z,7.70
2018-12-18T00:18:27.132Z,7.50
2018-12-18T00:19:27.089Z,7.40
2018-12-18T00:20:27.052Z,7.10
2018-12-18T00:21:26.997Z,6.80
2018-12-18T00:22:26.967Z,6.90
2018-12-18T00:23:26.951Z,7.10
2018-12-18T00:24:26.877Z,6.60
2018-12-18T00:25:26.853Z,7.50
2018-12-18T00:26:26.779Z,7.70
2018-12-18T00:27:26.786Z,7.60
2018-12-18T00:28:26.751Z,6.90
2018-12-18T00:29:26.682Z,7.40
2018-12-18T00:30:26.609Z,6.90
2018-12-18T00:31:26.575Z,7.00
2018-12-18T00:32:26.554Z,6.80
2018-12-18T00:33:26.502Z,7.30
2018-12-18T00:34:26.449Z,6.70
2018-12-18T00:35:26.388Z,6.40
2018-12-18T00:36:26.385Z,6.90
2018-12-18T00:37:26.327Z,7.20
2018-12-18T00:38:26.276Z,7.10
2018-12-18T00:39:26.234Z,7.50
2018-12-18T00:40:26.204Z,7.90
2018-12-18T00:41:26.153Z,7.20
2018-12-18T00:42:26.102Z,7.50
2018-12-18T00:43:26.060Z,6.60
2018-12-18T00:44:26.010Z,6.30
2018-12-18T00:45:25.995Z,6.90
2018-12-18T00:46:25.938Z,6.70
2018-12-18T00:47:25.874Z,6.60
2018-12-18T00:48:25.832Z,6.40
2018-12-18T00:49:25.840Z,6.70
2018-12-18T00:50:25.771Z,6.30
2018-12-18T00:51:25.722Z,6.00
2018-12-18T00:52:25.687Z,6.20
2018-12-18T00:53:25.617Z,5.90
2018-12-18T00:54:25.602Z,5.20
2018-12-18T00:55:25.573Z,5.70
2018-12-18T00:56:25.522Z,5.70
2018-12-18T00:57:25.457Z,5.60
2018-12-18T00:58:25.449Z,5.50
2018-12-18T00:59:25.358Z,6.40
2018-12-18T01:00:25.322Z,5.70
2018-12-18T01:01:25.275Z,5.60
2018-12-18T01:02:25.256Z,6.60
2018-12-18T01:03:25.194Z,5.20
2018-12-18T01:04:25.159Z,5.30
2018-12-18T01:05:25.109Z,5.30
2018-12-18T01:06:25.086Z,5.10
2018-12-18T01:07:25.009Z,5.30
2018-12-18T01:08:24.984Z,5.80
2018-12-18T01:09:24.944Z,6.30
2018-12-18T01:10:24.912Z,6.10
2018-12-18T01:11:24.848Z,5.20
2018-12-18T01:12:24.820Z,5.00
2018-12-18T01:13:24.744Z,5.30
2018-12-18T01:14:25.226Z,5.80
2018-12-18T01:15:24.679Z,5.60
2018-12-18T01:16:24.664Z,5.90
2018-12-18T01:17:24.568Z,5.90
2018-12-18T01:18:25.205Z,6.00
2018-12-18T01:19:24.487Z,6.00
2018-12-18T01:20:24.456Z,5.30
2018-12-18T01:21:24.412Z,6.10
2018-12-18T01:22:24.361Z,6.10
2018-12-18T01:23:24.306Z,6.60
2018-12-18T01:24:24.286Z,7.40
2018-12-18T01:25:24.224Z,6.80
2018-12-18T01:26:24.200Z,5.50
2018-12-18T01:27:24.191Z,6.10
2018-12-18T01:28:24.102Z,4.90
2018-12-18T01:29:24.047Z,4.90
2018-12-18T01:30:24.002Z,5.00
2018-12-18T01:31:23.994Z,4.90
2018-12-18T01:32:23.915Z,5.90
2018-12-18T01:33:23.876Z,6.30
2018-12-18T01:34:23.835Z,4.90
2018-12-18T01:35:23.799Z,4.70
2018-12-18T01:36:23.777Z,6.20
2018-12-18T01:37:23.705Z,6.40
2018-12-18T01:38:23.656Z,5.40
2018-12-18T01:39:23.605Z,4.80
2018-12-18T01:40:23.576Z,5.50
2018-12-18T01:41:23.514Z,5.60
2018-12-18T01:42:23.478Z,5.70
2018-12-18T01:43:23.435Z,6.00
2018-12-18T01:44:23.449Z,6.00
2018-12-18T01:45:23.355Z,6.30
2018-12-18T01:46:23.332Z,6.50
2018-12-18T01:47:23.271Z,7.60
2018-12-18T01:48:23.210Z,5.70
2018-12-18T01:49:23.165Z,6.30
2018-12-18T01:50:23.132Z,7.20
2018-12-18T01:51:23.088Z,5.50
2018-12-18T01:52:23.046Z,6.10
2018-12-18T01:53:23.029Z,6.70
2018-12-18T01:54:22.956Z,7.40
2018-12-18T01:55:22.905Z,4.70
2018-12-18T01:56:22.926Z,5.30
2018-12-18T01:57:22.843Z,5.40
2018-12-18T01:58:22.770Z,4.80
2018-12-18T01:59:22.754Z,4.30
2018-12-18T02:00:22.720Z,5.70
2018-12-18T02:01:22.644Z,6.10
2018-12-18T02:02:22.623Z,7.10
2018-12-18T02:03:22.554Z,6.90
2018-12-18T02:04:22.529Z,6.00
2018-12-18T02:05:22.460Z,6.30
2018-12-18T02:06:22.459Z,5.50
2018-12-18T02:07:22.372Z,5.50
2018-12-18T02:08:22.342Z,5.10
2018-12-18T02:09:22.301Z,5.00
2018-12-18T02:10:22.276Z,5.90
2018-12-18T02:11:22.277Z,6.30
2018-12-18T02:12:22.163Z,5.10
2018-12-18T02:13:22.140Z,6.00
2018-12-18T02:14:22.068Z,5.70
2018-12-18T02:15:22.022Z,6.40
2018-12-18T02:16:21.976Z,6.40
2018-12-18T02:17:21.935Z,6.60
2018-12-18T02:18:21.902Z,7.00
2018-12-18T02:19:21.901Z,7.00
2018-12-18T02:20:21.802Z,7.40
2018-12-18T02:21:21.752Z,6.40
2018-12-18T02:22:21.716Z,6.60
2018-12-18T02:23:21.670Z,7.00
2018-12-18T02:24:21.656Z,6.40
2018-12-18T02:25:21.596Z,6.20
2018-12-18T02:26:21.729Z,7.50
2018-12-18T02:27:21.516Z,7.90
2018-12-18T02:28:21.461Z,7.20
2018-12-18T02:29:21.476Z,7.60
2018-12-18T02:30:21.363Z,8.10
2018-12-18T02:31:21.342Z,7.30
2018-12-18T02:32:21.333Z,7.10
2018-12-18T02:33:21.245Z,7.40
2018-12-18T02:34:21.227Z,7.30
2018-12-18T02:35:21.156Z,7.90
2018-12-18T02:36:21.115Z,7.40
2018-12-18T02:37:21.104Z,7.20
2018-12-18T02:38:21.048Z,7.40
2018-12-18T02:39:20.971Z,7.10
2018-12-18T02:40:20.943Z,6.80
2018-12-18T02:41:20.893Z,7.00
2018-12-18T02:42:20.863Z,7.10
2018-12-18T02:43:20.813Z,6.60
2018-12-18T02:44:20.766Z,6.50
2018-12-18T02:45:20.708Z,7.50
2018-12-18T02:46:20.654Z,7.40
2018-12-18T02:47:20.600Z,6.90
2018-12-18T02:48:20.586Z,6.80
2018-12-18T02:49:20.515Z,7.30
2018-12-18T02:50:20.478Z,7.70
2018-12-18T02:51:20.449Z,6.40
2018-12-18T02:52:20.380Z,7.40
2018-12-18T02:53:20.371Z,7.30
2018-12-18T02:54:20.326Z,7.30
2018-12-18T02:55:20.247Z,6.90
2018-12-18T02:56:20.382Z,6.70
2018-12-18T02:57:20.176Z,5.80
2018-12-18T02:58:20.151Z,5.90
2018-12-18T02:59:20.082Z,5.90
2018-12-18T03:00:20.025Z,6.30
2018-12-18T03:01:19.974Z,6.00
2018-12-18T03:02:19.941Z,5.70
2018-12-18T03:03:19.902Z,5.60
2018-12-18T03:04:21.808Z,5.50
2018-12-18T03:05:19.815Z,5.40
2018-12-18T03:06:19.781Z,5.80
2018-12-18T03:07:19.728Z,5.80
2018-12-18T03:08:19.674Z,6.70
2018-12-18T03:09:19.635Z,5.40
2018-12-18T03:10:19.578Z,6.10
2018-12-18T03:11:19.535Z,7.10
2018-12-18T03:12:19.528Z,8.40
2018-12-18T03:13:19.443Z,7.50
2018-12-18T03:14:19.407Z,8.00
2018-12-18T03:15:19.362Z,8.40
2018-12-18T03:16:19.302Z,8.00
2018-12-18T03:17:19.275Z,7.50
2018-12-18T03:18:19.252Z,7.90
2018-12-18T03:19:19.199Z,8.00
2018-12-18T03:20:19.130Z,7.90
2018-12-18T03:21:19.076Z,8.60
2018-12-18T03:22:19.075Z,8.70
2018-12-18T03:23:19.004Z,8.50
2018-12-18T03:24:18.962Z,8.20
2018-12-18T03:25:18.994Z,8.40
2018-12-18T03:26:18.866Z,8.80
2018-12-18T03:27:18.895Z,9.40
2018-12-18T03:28:18.795Z,9.30
2018-12-18T03:29:18.722Z,8.90
2018-12-18T03:30:18.673Z,9.30
2018-12-18T03:31:18.808Z,9.80
2018-12-18T03:32:18.629Z,9.40
2018-12-18T03:33:18.539Z,9.30
2018-12-18T03:34:18.495Z,9.20
2018-12-18T03:35:18.453Z,9.10
2018-12-18T03:36:18.396Z,9.40
2018-12-18T03:37:18.463Z,9.10
2018-12-18T03:38:18.323Z,9.20
2018-12-18T03:39:18.452Z,11.40
2018-12-18T03:40:18.225Z,10.90
2018-12-18T03:41:18.241Z,10.70
2018-12-18T03:42:18.127Z,9.50
2018-12-18T03:43:18.195Z,10.10
2018-12-18T03:44:18.062Z,10.30
2018-12-18T03:45:18.035Z,10.50
2018-12-18T03:46:17.985Z,11.10
2018-12-18T03:47:18.086Z,11.30
2018-12-18T03:48:17.858Z,11.20
2018-12-18T03:49:17.833Z,12.00
2018-12-18T03:50:17.771Z,11.60
2018-12-18T03:51:17.751Z,11.70
2018-12-18T03:52:17.674Z,10.70
2018-12-18T03:53:17.663Z,10.40
2018-12-18T03:54:17.606Z,11.10
2018-12-18T03:55:17.564Z,11.00
2018-12-18T03:56:17.503Z,11.30
2018-12-18T03:57:17.502Z,10.00
2018-12-18T03:58:17.403Z,11.30
2018-12-18T03:59:17.382Z,10.90
2018-12-18T04:00:18.837Z,10.80
2018-12-18T04:01:17.299Z,10.10
2018-12-18T04:02:17.213Z,10.00
2018-12-18T04:03:17.198Z,10.30
2018-12-18T04:04:17.169Z,10.50
2018-12-18T04:05:17.092Z,9.30
2018-12-18T04:06:17.085Z,7.90
2018-12-18T04:07:17.051Z,10.40
2018-12-18T04:08:16.947Z,10.80
2018-12-18T04:09:16.904Z,9.40
2018-12-18T04:10:16.857Z,10.10
2018-12-18T04:11:16.811Z,9.40
2018-12-18T04:12:16.767Z,9.20
2018-12-18T04:13:16.710Z,9.40
2018-12-18T04:14:16.706Z,9.10
2018-12-18T04:15:16.625Z,9.00
2018-12-18T04:16:16.598Z,10.50
2018-12-18T04:17:16.544Z,9.30
2018-12-18T04:18:16.501Z,11.10
2018-12-18T04:19:16.451Z,13.60
2018-12-18T04:20:16.422Z,13.90
2018-12-18T04:21:16.375Z,11.50
2018-12-18T04:22:16.348Z,10.10
2018-12-18T04:23:16.288Z,10.90
2018-12-18T04:24:16.268Z,9.70
2018-12-18T04:25:16.203Z,10.20
2018-12-18T04:26:16.137Z,9.70
2018-12-18T04:27:16.082Z,10.80
2018-12-18T04:28:16.041Z,9.60
2018-12-18T04:29:16.053Z,9.30
2018-12-18T04:30:16.022Z,9.80
2018-12-18T04:31:15.914Z,9.90
2018-12-18T04:32:16.037Z,9.30
2018-12-18T04:33:15.852Z,9.00
2018-12-18T04:34:15.787Z,9.30
2018-12-18T04:35:15.741Z,10.00
2018-12-18T04:36:15.722Z,9.80
2018-12-18T04:37:15.729Z,10.00
2018-12-18T04:38:15.597Z,10.20
2018-12-18T04:39:15.590Z,11.70
2018-12-18T04:40:15.513Z,13.40
2018-12-18T04:41:15.445Z,11.80
2018-12-18T04:42:15.433Z,11.60
2018-12-18T04:43:15.381Z,12.30
2018-12-18T04:44:15.342Z,11.30
2018-12-18T04:45:15.868Z,12.20
2018-12-18T04:46:15.278Z,10.70
2018-12-18T04:47:15.202Z,9.30
2018-12-18T04:48:15.153Z,9.40
2018-12-18T04:49:15.097Z,11.20
2018-12-18T04:50:15.089Z,9.50
2018-12-18T04:51:15.151Z,9.20
2018-12-18T04:52:14.988Z,8.80
2018-12-18T04:53:14.959Z,8.40
2018-12-18T04:54:15.049Z,9.10
2018-12-18T04:55:14.837Z,9.70
2018-12-18T04:56:14.804Z,9.30
2018-12-18T04:57:14.879Z,9.90
2018-12-18T04:58:14.696Z,10.10
2018-12-18T04:59:14.679Z,9.90
2018-12-18T05:00:14.642Z,8.90
2018-12-18T05:01:14.600Z,10.20
2018-12-18T05:02:14.509Z,10.50
2018-12-18T05:03:14.473Z,10.20
2018-12-18T05:04:14.451Z,10.20
2018-12-18T05:05:14.403Z,10.40
2018-12-18T05:06:14.338Z,11.20
2018-12-18T05:07:14.293Z,11.70
2018-12-18T05:08:14.255Z,14.40
2018-12-18T05:09:14.773Z,14.40
2018-12-18T05:10:14.159Z,13.90
2018-12-18T05:11:14.104Z,13.60
2018-12-18T05:12:14.067Z,12.40
2018-12-18T05:13:14.021Z,13.60
2018-12-18T05:14:13.958Z,13.30
2018-12-18T05:15:13.919Z,13.30
2018-12-18T05:16:13.901Z,13.90
2018-12-18T05:17:13.871Z,14.00
2018-12-18T05:18:13.788Z,14.80
2018-12-18T05:19:13.768Z,14.00
2018-12-18T05:20:13.714Z,15.00
2018-12-18T05:21:13.656Z,15.50
2018-12-18T05:22:13.645Z,13.30
2018-12-18T05:23:13.566Z,12.00
2018-12-18T05:24:13.513Z,11.40
2018-12-18T05:25:13.466Z,12.00
2018-12-18T05:26:13.421Z,11.60
2018-12-18T05:27:13.389Z,10.50
2018-12-18T05:28:13.335Z,11.50
2018-12-18T05:29:13.331Z,10.90
2018-12-18T05:30:13.249Z,11.80
2018-12-18T05:31:13.202Z,11.70
2018-12-18T05:32:13.170Z,10.30
2018-12-18T05:33:13.106Z,10.30
2018-12-18T05:34:13.087Z,11.10
2018-12-18T05:35:13.049Z,10.90
2018-12-18T05:36:12.999Z,10.00
2018-12-18T05:37:12.921Z,10.10
2018-12-18T05:38:12.891Z,10.40
2018-12-18T05:39:12.841Z,11.20
2018-12-18T05:40:12.800Z,11.90
2018-12-18T05:41:12.738Z,11.50
2018-12-18T05:42:12.710Z,13.00
2018-12-18T05:43:12.689Z,11.60
2018-12-18T05:44:12.643Z,11.20
2018-12-18T05:45:12.598Z,12.40
2018-12-18T05:46:12.525Z,11.20
2018-12-18T05:47:12.507Z,11.90
2018-12-18T05:48:12.450Z,12.10
2018-12-18T05:49:12.405Z,12.60
2018-12-18T05:50:12.338Z,11.30
2018-12-18T05:51:12.320Z,12.20
2018-12-18T05:52:12.393Z,14.50
2018-12-18T05:53:12.330Z,13.20
2018-12-18T05:54:12.316Z,12.10
2018-12-18T05:55:12.136Z,12.00
2018-12-18T05:56:12.071Z,13.10
2018-12-18T05:57:12.028Z,12.70
2018-12-18T05:58:11.975Z,13.50
2018-12-18T05:59:11.993Z,13.20
2018-12-18T06:00:11.900Z,12.10
2018-12-18T06:01:11.971Z,12.50
2018-12-18T06:02:11.798Z,13.60
2018-12-18T06:03:11.782Z,12.80
2018-12-18T06:04:11.712Z,13.70
2018-12-18T06:05:11.678Z,14.90
2018-12-18T06:06:11.624Z,14.10
2018-12-18T06:07:11.593Z,14.10
2018-12-18T06:08:11.595Z,14.10
2018-12-18T06:09:11.475Z,13.80
2018-12-18T06:10:11.434Z,14.60
2018-12-18T06:11:11.405Z,14.80
2018-12-18T06:12:11.342Z,14.70
2018-12-18T06:13:11.330Z,14.00
2018-12-18T06:14:11.349Z,14.40
2018-12-18T06:15:11.218Z,14.00
2018-12-18T06:16:11.163Z,13.40
2018-12-18T06:17:11.170Z,13.70
2018-12-18T06:18:11.077Z,14.40
2018-12-18T06:19:11.037Z,13.80
2018-12-18T06:20:10.991Z,14.10
2018-12-18T06:21:10.969Z,14.90
2018-12-18T06:22:10.906Z,13.50
2018-12-18T06:23:10.878Z,13.30
2018-12-18T06:24:10.854Z,14.50
2018-12-18T06:25:10.757Z,14.00
2018-12-18T06:26:10.733Z,13.50
2018-12-18T06:27:10.682Z,14.70
2018-12-18T06:28:10.628Z,13.90
2018-12-18T06:29:10.622Z,14.70
2018-12-18T06:30:10.570Z,14.40
2018-12-18T06:31:10.515Z,13.70
2018-12-18T06:32:10.445Z,13.70
2018-12-18T06:33:10.403Z,14.00
2018-12-18T06:34:10.373Z,13.70
2018-12-18T06:35:10.691Z,13.80
2018-12-18T06:36:10.463Z,13.10
2018-12-18T06:37:10.235Z,13.80
2018-12-18T06:38:10.183Z,14.00
2018-12-18T06:39:10.138Z,13.50
2018-12-18T06:40:10.093Z,13.60
2018-12-18T06:41:10.057Z,12.90
2018-12-18T06:42:10.064Z,13.50
2018-12-18T06:43:09.992Z,13.30
2018-12-18T06:44:10.014Z,14.10
2018-12-18T06:45:09.937Z,14.10
2018-12-18T06:46:09.868Z,13.90
2018-12-18T06:47:09.807Z,13.80
2018-12-18T06:48:09.765Z,14.80
2018-12-18T06:49:09.746Z,14.30
2018-12-18T06:50:09.736Z,14.90
2018-12-18T06:51:09.597Z,14.20
2018-12-18T06:52:09.569Z,14.40
2018-12-18T06:53:09.522Z,13.70
2018-12-18T06:54:09.622Z,13.30
2018-12-18T06:55:09.430Z,14.10
2018-12-18T06:56:09.431Z,13.40
2018-12-18T06:57:09.351Z,13.50
2018-12-18T06:58:09.312Z,15.50
2018-12-18T06:59:09.276Z,17.60
2018-12-18T07:00:09.238Z,18.20
2018-12-18T07:01:09.770Z,16.00
2018-12-18T07:02:09.105Z,16.10
2018-12-18T07:03:09.075Z,15.30
2018-12-18T07:04:09.241Z,13.80
2018-12-18T07:05:08.991Z,14.40
2018-12-18T07:06:08.920Z,14.50
2018-12-18T07:07:08.897Z,14.80
2018-12-18T07:08:08.826Z,15.20
2018-12-18T07:09:08.862Z,15.10
2018-12-18T07:10:08.872Z,15.00
2018-12-18T07:11:08.736Z,14.90
2018-12-18T07:12:08.667Z,14.20
2018-12-18T07:13:08.614Z,14.90
2018-12-18T07:14:08.589Z,15.10
2018-12-18T07:15:08.549Z,14.90
2018-12-18T07:16:08.511Z,15.40
2018-12-18T07:17:08.470Z,15.20
2018-12-18T07:18:08.400Z,15.80
2018-12-18T07:19:08.353Z,14.90
2018-12-18T07:20:08.295Z,15.40
2018-12-18T07:21:08.282Z,16.10
2018-12-18T07:22:08.225Z,16.00
2018-12-18T07:23:08.222Z,15.70
2018-12-18T07:24:13.891Z,17.10
2018-12-18T07:25:08.076Z,16.60
2018-12-18T07:26:08.151Z,16.40
2018-12-18T07:27:07.996Z,16.40
2018-12-18T07:28:07.975Z,16.70
2018-12-18T07:29:07.908Z,16.60
2018-12-18T07:30:07.850Z,16.30
2018-12-18T07:31:07.801Z,15.30
2018-12-18T07:32:07.785Z,15.60
2018-12-18T07:33:07.718Z,14.80
2018-12-18T07:34:07.679Z,14.20
2018-12-18T07:35:07.632Z,14.60
2018-12-18T07:36:07.581Z,13.70
2018-12-18T07:37:07.563Z,13.70
2018-12-18T07:38:07.491Z,13.60
2018-12-18T07:39:07.448Z,12.50
2018-12-18T07:40:07.415Z,12.70
2018-12-18T07:41:07.388Z,12.00
2018-12-18T07:42:07.315Z,12.20
2018-12-18T07:43:07.281Z,12.50
2018-12-18T07:44:07.247Z,12.30
2018-12-18T07:45:07.223Z,13.70
2018-12-18T07:46:07.135Z,13.00
2018-12-18T07:47:07.099Z,13.90
2018-12-18T07:48:07.078Z,13.00
2018-12-18T07:49:07.062Z,13.00
2018-12-18T07:50:06.964Z,13.10
2018-12-18T07:51:06.929Z,11.60
2018-12-18T07:52:07.069Z,11.40
2018-12-18T07:53:06.912Z,11.70
2018-12-18T07:54:06.784Z,12.50
2018-12-18T07:55:06.732Z,11.50
2018-12-18T07:56:06.725Z,11.90
2018-12-18T07:57:06.674Z,11.60
2018-12-18T07:58:06.625Z,11.70
2018-12-18T07:59:06.577Z,10.40
2018-12-18T08:00:06.520Z,12.80
2018-12-18T08:01:06.474Z,11.40
2018-12-18T08:02:06.548Z,13.90
2018-12-18T08:03:06.385Z,17.40
2018-12-18T08:04:06.346Z,17.60
2018-12-18T08:05:06.307Z,18.80
2018-12-18T08:06:06.262Z,19.10
2018-12-18T08:07:06.198Z,29.00
2018-12-18T08:08:06.219Z,23.90
2018-12-18T08:09:06.131Z,28.10
2018-12-18T08:10:06.087Z,31.90
2018-12-18T08:11:06.022Z,15.90
2018-12-18T08:12:05.984Z,21.20
2018-12-18T08:13:06.006Z,11.30
2018-12-18T08:14:06.001Z,11.00
2018-12-18T08:15:05.861Z,11.50
2018-12-18T08:16:05.806Z,11.40
2018-12-18T08:17:05.764Z,10.50
2018-12-18T08:18:05.730Z,9.90
2018-12-18T08:19:05.677Z,9.40
2018-12-18T08:20:05.653Z,9.30
2018-12-18T08:21:05.588Z,9.60
2018-12-18T08:22:05.586Z,13.30
2018-12-18T08:23:05.502Z,10.90
2018-12-18T08:24:05.478Z,9.60
2018-12-18T08:25:05.462Z,12.80
2018-12-18T08:26:05.591Z,14.70
2018-12-18T08:27:05.338Z,14.60
2018-12-18T08:28:05.371Z,14.00
2018-12-18T08:29:05.235Z,12.00
2018-12-18T08:30:05.224Z,13.70
2018-12-18T08:31:05.143Z,10.30
2018-12-18T08:32:05.115Z,10.80
2018-12-18T08:33:05.066Z,10.80
2018-12-18T08:34:05.028Z,12.30
2018-12-18T08:35:04.970Z,10.70
2018-12-18T08:36:04.933Z,10.00
2018-12-18T08:37:04.878Z,10.00
2018-12-18T08:38:04.837Z,9.70
2018-12-18T08:39:04.808Z,10.20
2018-12-18T08:40:04.854Z,10.10
2018-12-18T08:41:04.707Z,10.30
2018-12-18T08:42:04.713Z,11.40
2018-12-18T08:43:04.621Z,11.60
2018-12-18T08:44:04.579Z,12.10
2018-12-18T08:45:04.537Z,14.00
2018-12-18T08:46:10.029Z,14.90
2018-12-18T08:47:04.440Z,13.50
2018-12-18T08:48:04.407Z,10.10
2018-12-18T08:49:04.369Z,8.70
2018-12-18T08:50:04.433Z,9.70
2018-12-18T08:51:04.273Z,10.90
2018-12-18T08:52:04.260Z,10.50
2018-12-18T08:53:04.181Z,10.10
2018-12-18T08:54:04.141Z,9.00
2018-12-18T08:55:04.092Z,12.10
2018-12-18T08:56:04.094Z,14.10
2018-12-18T08:57:04.020Z,15.20
2018-12-18T08:58:04.016Z,12.60
2018-12-18T08:59:03.927Z,15.30
2018-12-18T09:00:03.897Z,14.10
2018-12-18T09:01:03.846Z,10.80
2018-12-18T09:02:03.800Z,12.40
2018-12-18T09:03:03.754Z,11.80
2018-12-18T09:04:03.715Z,9.80
2018-12-18T09:05:03.664Z,12.80
2018-12-18T09:06:03.663Z,10.30
2018-12-18T09:07:03.574Z,11.10
2018-12-18T09:08:03.552Z,11.60
2018-12-18T09:09:03.498Z,11.50
2018-12-18T09:10:03.456Z,11.00
2018-12-18T09:11:03.434Z,10.70
2018-12-18T09:12:03.370Z,8.60
2018-12-18T09:13:03.366Z,8.90
2018-12-18T09:14:03.279Z,8.80
2018-12-18T09:15:03.277Z,8.60
2018-12-18T09:16:03.209Z,6.90
2018-12-18T09:17:03.164Z,8.10
2018-12-18T09:18:03.126Z,8.10
2018-12-18T09:19:03.116Z,8.00
2018-12-18T09:20:03.026Z,7.50
2018-12-18T09:21:03.008Z,8.10
2018-12-18T09:22:02.950Z,8.50
2018-12-18T09:23:02.911Z,7.00
2018-12-18T09:24:02.887Z,6.90
2018-12-18T09:25:02.836Z,6.40
2018-12-18T09:26:02.825Z,6.10
2018-12-18T09:27:02.760Z,6.90
2018-12-18T09:28:02.722Z,6.30
2018-12-18T09:29:02.671Z,6.20
2018-12-18T09:30:02.643Z,9.40
2018-12-18T09:31:02.575Z,8.10
2018-12-18T09:32:02.537Z,9.50
2018-12-18T09:33:02.498Z,6.40
2018-12-18T09:34:02.468Z,6.40
2018-12-18T09:35:02.405Z,6.30
2018-12-18T09:36:02.392Z,6.50
2018-12-18T09:37:02.363Z,6.30
2018-12-18T09:38:02.302Z,6.00
2018-12-18T09:39:02.313Z,5.50
2018-12-18T09:40:02.256Z,6.10
2018-12-18T09:41:02.173Z,5.70
2018-12-18T09:42:02.163Z,5.00
2018-12-18T09:43:02.094Z,5.60
2018-12-18T09:44:02.060Z,6.10
2018-12-18T09:45:02.008Z,6.00
2018-12-18T09:46:01.990Z,5.80
2018-12-18T09:47:01.963Z,6.10
2018-12-18T09:48:01.950Z,5.60
2018-12-18T09:49:01.870Z,6.10
2018-12-18T09:50:01.820Z,5.80
2018-12-18T09:51:01.833Z,5.70
2018-12-18T09:52:03.431Z,5.80
2018-12-18T09:53:01.724Z,6.00
2018-12-18T09:54:01.677Z,5.70
2018-12-18T09:55:01.651Z,5.40
2018-12-18T09:56:01.616Z,5.70
2018-12-18T09:57:01.583Z,6.80
2018-12-18T09:58:01.549Z,6.60
2018-12-18T09:59:01.505Z,6.00
2018-12-18T10:00:01.462Z,6.60
2018-12-18T10:01:01.489Z,6.50
2018-12-18T10:02:01.420Z,6.10
2018-12-18T10:03:01.374Z,5.20
2018-12-18T10:04:01.342Z,6.70
2018-12-18T10:05:01.381Z,6.40
2018-12-18T10:06:01.274Z,6.10
2018-12-18T10:07:01.239Z,5.90
2018-12-18T10:08:01.206Z,6.10
2018-12-18T10:09:01.163Z,6.10
2018-12-18T10:10:01.153Z,6.00
2018-12-18T10:11:01.110Z,5.70
2018-12-18T10:12:01.070Z,3.60
2018-12-18T10:13:01.042Z,5.40
2018-12-18T10:14:01.006Z,6.20
2018-12-18T10:15:01.139Z,5.80
2018-12-18T10:16:00.952Z,5.10
2018-12-18T10:17:00.909Z,5.60
2018-12-18T10:18:00.891Z,6.10
2018-12-18T10:19:00.874Z,4.80
2018-12-18T10:20:00.840Z,5.80
2018-12-18T10:21:00.805Z,5.10
2018-12-18T10:22:00.759Z,5.60
2018-12-18T10:23:00.748Z,5.30
2018-12-18T10:24:00.689Z,5.80
2018-12-18T10:25:00.654Z,5.10
2018-12-18T10:26:00.633Z,5.70
2018-12-18T10:27:00.590Z,4.90
2018-12-18T10:28:00.565Z,5.60
2018-12-18T10:29:00.527Z,5.50
2018-12-18T10:30:00.495Z,5.40
2018-12-18T10:31:00.466Z,4.70
2018-12-18T10:32:00.445Z,4.20
2018-12-18T10:33:00.395Z,4.60
2018-12-18T10:34:00.369Z,4.30
2018-12-18T10:35:00.348Z,3.70
2018-12-18T10:36:03.069Z,4.30
2018-12-18T10:37:00.277Z,4.70
2018-12-18T10:38:00.269Z,4.00
2018-12-18T10:39:00.223Z,4.90
2018-12-18T10:40:00.215Z,4.30
2018-12-18T10:41:00.194Z,4.10
2018-12-18T10:42:00.139Z,4.10
2018-12-18T10:43:00.107Z,3.70
2018-12-18T10:44:00.062Z,3.70
2018-12-18T10:45:00.064Z,3.90
2018-12-18T10:46:00.035Z,4.00
2018-12-18T10:46:59.979Z,3.60
2018-12-18T10:47:59.943Z,3.90
2018-12-18T10:48:59.911Z,3.30
2018-12-18T10:49:59.886Z,3.70
2018-12-18T10:50:59.847Z,3.80
2018-12-18T10:51:59.828Z,3.70
2018-12-18T10:52:59.808Z,3.80
2018-12-18T10:53:59.751Z,3.90
2018-12-18T10:54:59.768Z,5.40
2018-12-18T10:55:59.730Z,4.20
2018-12-18T10:56:59.671Z,3.70
2018-12-18T10:57:59.636Z,4.00
2018-12-18T10:58:59.628Z,3.90
2018-12-18T10:59:59.586Z,3.90
2018-12-18T11:00:59.554Z,3.80
2018-12-18T11:01:59.558Z,3.80
2018-12-18T11:02:59.514Z,3.60
2018-12-18T11:03:59.474Z,3.70
2018-12-18T11:04:59.431Z,3.70
2018-12-18T11:05:59.419Z,3.90
2018-12-18T11:06:59.379Z,3.80
2018-12-18T11:07:59.347Z,4.00
2018-12-18T11:08:59.335Z,4.00
2018-12-18T11:09:59.308Z,4.60
2018-12-18T11:10:59.305Z,4.20
2018-12-18T11:11:59.279Z,4.40
2018-12-18T11:12:59.205Z,4.40
2018-12-18T11:13:59.190Z,4.40
2018-12-18T11:14:59.149Z,4.10
2018-12-18T11:15:59.122Z,3.90
2018-12-18T11:16:59.116Z,4.10
2018-12-18T11:17:59.081Z,3.10
2018-12-18T11:18:59.027Z,3.30
2018-12-18T11:19:58.989Z,4.30
2018-12-18T11:20:58.988Z,4.10
2018-12-18T11:21:58.941Z,4.00
2018-12-18T11:22:58.921Z,3.90
2018-12-18T11:23:58.880Z,3.70
2018-12-18T11:24:58.900Z,3.40
2018-12-18T11:25:58.858Z,3.40
2018-12-18T11:26:58.856Z,4.10
2018-12-18T11:27:58.763Z,3.80
2018-12-18T11:28:58.732Z,4.30
2018-12-18T11:29:58.703Z,3.70
2018-12-18T11:30:58.678Z,4.10
2018-12-18T11:31:58.659Z,4.30
2018-12-18T11:32:58.630Z,4.60
2018-12-18T11:33:58.592Z,4.40
2018-12-18T11:34:58.579Z,4.00
2018-12-18T11:35:58.589Z,4.40
2018-12-18T11:36:58.514Z,3.10
2018-12-18T11:37:58.472Z,3.10
2018-12-18T11:38:58.430Z,3.80
2018-12-18T11:39:58.392Z,3.90
2018-12-18T11:40:58.371Z,3.90
2018-12-18T11:41:58.351Z,3.50
2018-12-18T11:42:58.313Z,3.50
2018-12-18T11:43:58.257Z,3.60
2018-12-18T11:44:58.261Z,3.60
2018-12-18T11:45:58.225Z,3.40
2018-12-18T11:46:58.246Z,3.40
2018-12-18T11:47:58.180Z,3.40
2018-12-18T11:48:58.349Z,3.40
2018-12-18T11:49:58.076Z,3.40
2018-12-18T11:50:58.140Z,3.00
2018-12-18T11:51:58.004Z,2.90
2018-12-18T11:52:58.087Z,3.00
2018-12-18T11:53:57.964Z,2.90
2018-12-18T11:54:57.926Z,3.10
2018-12-18T11:55:57.850Z,2.50
2018-12-18T11:56:57.819Z,2.70
2018-12-18T11:57:57.830Z,2.80
2018-12-18T11:58:57.898Z,2.70
2018-12-18T11:59:57.711Z,2.80
2018-12-18T12:00:57.667Z,3.00
2018-12-18T12:01:57.637Z,3.00
2018-12-18T12:02:57.614Z,3.30
2018-12-18T12:03:57.568Z,3.30
2018-12-18T12:04:57.519Z,3.20
2018-12-18T12:05:57.493Z,2.80
2018-12-18T12:06:57.455Z,2.70
2018-12-18T12:07:57.430Z,3.20
2018-12-18T12:08:57.383Z,3.20
2018-12-18T12:09:57.333Z,2.80
2018-12-18T12:10:57.304Z,3.10
2018-12-18T12:11:57.277Z,2.70
2018-12-18T12:12:57.224Z,2.90
2018-12-18T12:13:57.199Z,2.60
2018-12-18T12:14:57.299Z,2.80
2018-12-18T12:15:57.115Z,2.90
2018-12-18T12:16:57.080Z,2.80
2018-12-18T12:17:57.033Z,3.30
2018-12-18T12:18:56.988Z,2.90
2018-12-18T12:19:56.955Z,2.90
2018-12-18T12:20:56.926Z,2.70
2018-12-18T12:21:56.885Z,3.00
2018-12-18T12:22:56.848Z,3.00
2018-12-18T12:23:56.811Z,2.60
2018-12-18T12:24:56.773Z,2.70
2018-12-18T12:25:56.729Z,2.70
2018-12-18T12:26:56.702Z,2.70
2018-12-18T12:27:56.662Z,2.80
2018-12-18T12:28:56.623Z,2.70
2018-12-18T12:29:56.566Z,3.20
2018-12-18T12:30:56.562Z,3.00
2018-12-18T12:31:56.498Z,2.90
2018-12-18T12:32:56.459Z,2.80
2018-12-18T12:33:56.433Z,3.00
2018-12-18T12:34:56.371Z,2.90
2018-12-18T12:35:56.363Z,2.60
2018-12-18T12:36:56.299Z,2.80
2018-12-18T12:37:56.262Z,3.00
2018-12-18T12:38:56.221Z,3.30
2018-12-18T12:39:56.183Z,3.40
2018-12-18T12:40:56.158Z,2.90
2018-12-18T12:41:56.107Z,3.40
2018-12-18T12:42:56.057Z,3.30
2018-12-18T12:43:56.009Z,3.50
2018-12-18T12:44:55.988Z,3.30
2018-12-18T12:45:55.930Z,3.60
2018-12-18T12:46:55.904Z,3.30
2018-12-18T12:47:55.865Z,3.40
2018-12-18T12:48:55.953Z,3.10
2018-12-18T12:49:55.784Z,3.50
2018-12-18T12:50:55.753Z,3.70
2018-12-18T12:51:55.723Z,3.60
2018-12-18T12:52:55.708Z,3.40
2018-12-18T12:53:55.705Z,3.80
2018-12-18T12:54:55.637Z,3.30
2018-12-18T12:55:55.552Z,3.70
2018-12-18T12:56:55.516Z,3.90
2018-12-18T12:57:55.469Z,3.40
2018-12-18T12:58:55.464Z,3.00
2018-12-18T12:59:55.384Z,3.40
2018-12-18T13:00:55.364Z,3.20
2018-12-18T13:01:55.298Z,3.20
2018-12-18T13:02:55.269Z,3.40
2018-12-18T13:03:55.246Z,3.50
2018-12-18T13:04:55.190Z,3.40
2018-12-18T13:05:55.143Z,3.30
2018-12-18T13:06:55.105Z,3.30
2018-12-18T13:07:56.196Z,3.40